Time;durP1;ratioP1;P1;durP2;ratioP2;P2;SDS_P1;SDS_P2;PMS_P1;PMS_P2;Temp;Humidity;BMP_temperature;BMP_pressure;BME280_temperature;BME280_humidity;BME280_pressure;Samples;Min_cycle;Max_cycle;Signal;HPM_P1;HPM_P2
2023/07/10 00:01:43;;;;;;;17.93;16.10;;;21.80;99.90;;;;;;5072063;28;20447;-72
2023/07/10 00:04:17;;;;;;;16.97;15.27;;;21.80;99.90;;;;;;5074341;28;20454;-72
2023/07/10 00:06:44;;;;;;;14.90;12.50;;;21.80;99.90;;;;;;5106139;28;20211;-73
2023/07/10 00:09:09;;;;;;;16.93;15.40;;;21.80;99.90;;;;;;5071268;28;20473;-72
2023/07/10 00:11:39;;;;;;;18.77;16.80;;;21.80;99.90;;;;;;5088506;28;20395;-73
2023/07/10 00:14:15;;;;;;;22.43;20.23;;;21.80;99.90;;;;;;5106049;28;20254;-74
2023/07/10 00:16:42;;;;;;;17.80;16.00;;;21.80;99.90;;;;;;5083627;28;20435;-73
2023/07/10 00:19:11;;;;;;;15.67;14.07;;;21.90;99.90;;;;;;5083330;28;20918;-73
2023/07/10 00:21:37;;;;;;;12.90;11.70;;;21.90;99.90;;;;;;5105768;28;20411;-73
2023/07/10 00:24:03;;;;;;;13.00;11.70;;;21.90;99.90;;;;;;5105146;28;20419;-73
2023/07/10 00:26:29;;;;;;;15.67;14.17;;;22.00;99.90;;;;;;5084977;28;20446;-74
2023/07/10 00:28:57;;;;;;;24.57;22.27;;;22.00;99.90;;;;;;5102243;28;20409;-72
2023/07/10 00:31:27;;;;;;;20.30;18.23;;;22.10;99.90;;;;;;5090874;28;20177;-73
2023/07/10 00:33:53;;;;;;;20.97;18.67;;;22.10;99.90;;;;;;5103225;28;20421;-73
2023/07/10 00:36:30;;;;;;;18.03;16.13;;;22.10;99.90;;;;;;5085294;28;20507;-73
2023/07/10 00:38:59;;;;;;;21.30;19.20;;;22.10;99.90;;;;;;5102466;28;20845;-73
2023/07/10 00:41:28;;;;;;;15.00;13.50;;;22.10;99.90;;;;;;5102926;28;20439;-73
2023/07/10 00:44:00;;;;;;;14.80;13.47;;;22.10;99.90;;;;;;5102800;28;20693;-72
2023/07/10 00:46:37;;;;;;;15.13;13.63;;;22.10;99.90;;;;;;5086526;28;20523;-71
2023/07/10 00:49:32;;;;;;;15.13;13.73;;;22.10;99.90;;;;;;5084998;28;20503;-72
2023/07/10 00:52:19;;;;;;;15.37;14.00;;;22.20;99.90;;;;;;5044304;28;20412;-72
2023/07/10 00:54:50;;;;;;;10.57;9.47;;;22.20;99.90;;;;;;5103403;28;20514;-72
2023/07/10 00:57:21;;;;;;;13.33;11.80;;;22.20;99.90;;;;;;5102675;28;20686;-73
2023/07/10 00:59:49;;;;;;;12.97;11.73;;;22.20;99.90;;;;;;5078579;28;20426;-72
2023/07/10 01:02:20;;;;;;;15.50;13.63;;;22.20;99.90;;;;;;5064468;28;20412;-73
2023/07/10 01:04:53;;;;;;;13.63;11.67;;;22.20;99.90;;;;;;5082487;28;20446;-73
2023/07/10 01:07:22;;;;;;;16.43;14.70;;;22.20;99.90;;;;;;5080915;28;20918;-71
2023/07/10 01:09:55;;;;;;;15.73;14.20;;;22.20;99.90;;;;;;5097322;28;20426;-72
2023/07/10 01:12:22;;;;;;;17.10;15.30;;;22.20;99.90;;;;;;5100199;28;20415;-73
2023/07/10 01:14:47;;;;;;;15.73;14.13;;;22.20;99.90;;;;;;5093625;28;20493;-73
2023/07/10 01:17:13;;;;;;;17.47;15.80;;;22.20;99.90;;;;;;5059744;28;20426;-72
2023/07/10 01:19:41;;;;;;;18.80;15.47;;;22.20;99.90;;;;;;5101853;28;20208;-73
2023/07/10 01:22:09;;;;;;;17.27;14.50;;;22.20;99.90;;;;;;5106839;28;20283;-73
2023/07/10 01:24:36;;;;;;;19.60;17.57;;;22.20;99.90;;;;;;5092098;28;20414;-73
2023/07/10 01:27:04;;;;;;;14.43;13.03;;;22.20;99.90;;;;;;5109170;28;20465;-74
2023/07/10 01:29:41;;;;;;;22.50;18.90;;;22.10;99.90;;;;;;5104805;28;20435;-72
2023/07/10 01:32:13;;;;;;;15.57;13.87;;;22.10;99.90;;;;;;5082581;28;20905;-72
2023/07/10 01:34:53;;;;;;;19.90;17.60;;;22.00;99.90;;;;;;5082174;28;20415;-72
2023/07/10 01:37:19;;;;;;;15.87;14.07;;;22.00;99.90;;;;;;5079038;28;20466;-74
2023/07/10 01:39:47;;;;;;;21.00;18.83;;;22.00;99.90;;;;;;5084247;28;20438;-72
2023/07/10 01:42:13;;;;;;;21.60;18.73;;;22.00;99.90;;;;;;5100719;28;20448;-72
2023/07/10 01:44:41;;;;;;;21.53;19.40;;;21.90;99.90;;;;;;5079966;28;20430;-72
2023/07/10 01:47:09;;;;;;;19.00;14.53;;;21.90;99.90;;;;;;5093297;28;20219;-73
2023/07/10 01:49:41;;;;;;;12.03;10.53;;;21.80;99.90;;;;;;5101369;28;20480;-72
2023/07/10 01:52:10;;;;;;;17.80;15.40;;;21.80;99.90;;;;;;5095360;28;20385;-72
2023/07/10 01:54:36;;;;;;;18.10;16.30;;;21.70;99.90;;;;;;5077550;28;20389;-72
2023/07/10 01:57:03;;;;;;;17.07;15.37;;;21.70;99.90;;;;;;5095640;28;20385;-72
2023/07/10 01:59:29;;;;;;;28.90;21.47;;;21.70;99.90;;;;;;5075437;28;20446;-72
2023/07/10 02:01:56;;;;;;;17.63;15.70;;;21.70;99.90;;;;;;5058215;28;20186;-72
2023/07/10 02:04:22;;;;;;;23.60;20.70;;;21.70;99.90;;;;;;5093209;28;20716;-71
2023/07/10 02:06:48;;;;;;;24.00;18.67;;;21.70;99.90;;;;;;5095425;28;20503;-72
2023/07/10 02:09:14;;;;;;;22.53;17.67;;;21.60;99.90;;;;;;5095366;28;20434;-72
2023/07/10 02:11:39;;;;;;;20.03;17.80;;;21.60;99.90;;;;;;5077140;28;20195;-72
2023/07/10 02:14:07;;;;;;;16.60;14.57;;;21.50;99.90;;;;;;5095083;28;20176;-72
2023/07/10 02:16:32;;;;;;;15.30;13.67;;;21.50;99.90;;;;;;5090030;28;20200;-72
2023/07/10 02:18:59;;;;;;;18.07;15.97;;;21.50;99.90;;;;;;5094803;28;20420;-72
2023/07/10 02:21:25;;;;;;;17.67;15.87;;;21.50;99.90;;;;;;5097244;28;20234;-72
2023/07/10 02:23:50;;;;;;;23.83;21.43;;;21.40;99.90;;;;;;5099129;28;20403;-72
2023/07/10 02:26:17;;;;;;;22.57;19.80;;;21.40;99.90;;;;;;5099610;28;20207;-71
2023/07/10 02:28:43;;;;;;;18.67;16.77;;;21.40;99.90;;;;;;5099208;28;20586;-71
2023/07/10 02:31:09;;;;;;;27.47;20.87;;;21.30;99.90;;;;;;5079256;28;20905;-72
2023/07/10 02:33:35;;;;;;;18.33;16.53;;;21.30;99.90;;;;;;5042426;28;20416;-73
2023/07/10 02:36:02;;;;;;;21.60;16.73;;;21.30;99.90;;;;;;5059437;28;20743;-71
2023/07/10 02:38:28;;;;;;;19.57;17.63;;;21.20;99.90;;;;;;5078876;28;20411;-73
2023/07/10 02:40:55;;;;;;;28.47;22.93;;;21.20;99.90;;;;;;5095393;28;20410;-72
2023/07/10 02:43:20;;;;;;;17.50;15.73;;;21.20;99.90;;;;;;5094776;28;20397;-72
2023/07/10 02:45:46;;;;;;;22.00;19.80;;;21.10;99.90;;;;;;5081362;28;21072;-72
2023/07/10 02:48:12;;;;;;;21.87;19.67;;;21.10;99.90;;;;;;5077789;28;20291;-72
2023/07/10 02:50:38;;;;;;;24.07;21.67;;;21.10;99.90;;;;;;5076617;28;20974;-73
2023/07/10 02:53:04;;;;;;;27.03;24.23;;;21.10;99.90;;;;;;5098442;28;20328;-72
2023/07/10 02:55:29;;;;;;;21.00;18.60;;;21.10;99.90;;;;;;5080798;28;20586;-72
2023/07/10 02:57:55;;;;;;;24.53;22.23;;;21.10;99.90;;;;;;5078074;28;20185;-72
2023/07/10 03:00:20;;;;;;;28.53;25.63;;;21.00;99.90;;;;;;5083042;28;20539;-73
2023/07/10 03:02:46;;;;;;;28.73;25.73;;;21.00;99.90;;;;;;5061740;28;20468;-71
2023/07/10 03:05:12;;;;;;;35.87;27.77;;;21.00;99.90;;;;;;5089664;28;20622;-73
2023/07/10 03:07:37;;;;;;;34.00;30.30;;;21.00;99.90;;;;;;5096428;28;20215;-72
2023/07/10 03:10:05;;;;;;;33.00;28.40;;;21.00;99.90;;;;;;5094689;28;20196;-72
2023/07/10 03:12:31;;;;;;;36.70;33.00;;;21.00;99.90;;;;;;5077365;28;20751;-71
2023/07/10 03:14:57;;;;;;;35.73;31.63;;;20.90;99.90;;;;;;5084610;28;20463;-73
2023/07/10 03:17:22;;;;;;;32.97;29.00;;;20.90;99.90;;;;;;5065868;28;20192;-72
2023/07/10 03:19:50;;;;;;;32.50;27.40;;;20.90;99.90;;;;;;5094492;28;20212;-72
2023/07/10 03:22:16;;;;;;;30.73;27.63;;;20.80;99.90;;;;;;5098019;28;20215;-72
2023/07/10 03:24:42;;;;;;;34.23;28.60;;;20.80;99.90;;;;;;5094802;28;20475;-72
2023/07/10 03:27:08;;;;;;;31.27;26.20;;;20.80;99.90;;;;;;5094221;28;20453;-72
2023/07/10 03:29:36;;;;;;;29.57;24.43;;;20.70;99.90;;;;;;5093321;28;20209;-72
2023/07/10 03:32:02;;;;;;;23.03;20.60;;;20.70;99.90;;;;;;5060383;28;20422;-73
2023/07/10 03:34:28;;;;;;;27.03;21.57;;;20.60;99.90;;;;;;5091554;28;20678;-72
2023/07/10 03:36:53;;;;;;;23.73;21.33;;;20.60;99.90;;;;;;5098547;28;20413;-72
2023/07/10 03:39:19;;;;;;;28.47;25.57;;;20.60;99.90;;;;;;5098158;28;20197;-72
2023/07/10 03:41:44;;;;;;;27.83;25.03;;;20.60;99.90;;;;;;5098775;28;20180;-73
2023/07/10 03:44:13;;;;;;;26.87;24.10;;;20.60;99.90;;;;;;5106769;28;20200;-73
2023/07/10 03:46:39;;;;;;;28.57;25.47;;;20.60;99.90;;;;;;5074850;28;20208;-71
2023/07/10 03:49:04;;;;;;;25.67;22.73;;;20.60;99.90;;;;;;5098264;28;20456;-71
2023/07/10 03:51:30;;;;;;;18.53;16.60;;;20.60;99.90;;;;;;5097428;28;20176;-71
2023/07/10 03:53:55;;;;;;;20.77;17.67;;;20.60;99.90;;;;;;5099335;28;20592;-71
2023/07/10 03:56:21;;;;;;;26.73;23.93;;;20.70;99.90;;;;;;5101592;28;20181;-73
2023/07/10 03:58:46;;;;;;;26.00;22.87;;;20.70;99.90;;;;;;5101961;28;20180;-72
2023/07/10 04:01:13;;;;;;;28.60;22.93;;;20.70;99.90;;;;;;5075260;28;20217;-72
2023/07/10 04:03:39;;;;;;;17.43;15.63;;;20.70;99.90;;;;;;5082548;28;20511;-71
2023/07/10 04:06:07;;;;;;;21.83;19.63;;;20.70;99.90;;;;;;5095535;28;20422;-71
2023/07/10 04:08:35;;;;;;;30.00;21.23;;;20.70;99.90;;;;;;5097876;28;20470;-72
2023/07/10 04:11:03;;;;;;;22.63;19.07;;;20.70;99.90;;;;;;5058109;28;20424;-72
2023/07/10 04:13:29;;;;;;;20.17;17.87;;;20.70;99.90;;;;;;5060661;28;20423;-72
2023/07/10 04:15:59;;;;;;;19.63;16.53;;;20.70;99.90;;;;;;5071487;28;20704;-73
2023/07/10 04:18:29;;;;;;;18.73;15.13;;;20.70;99.90;;;;;;5095962;28;20185;-72
2023/07/10 04:20:56;;;;;;;17.20;14.40;;;20.60;99.90;;;;;;5097576;28;20434;-72
2023/07/10 04:23:22;;;;;;;23.87;17.40;;;20.60;99.90;;;;;;5098148;28;20426;-72
2023/07/10 04:25:48;;;;;;;24.90;18.13;;;20.50;99.90;;;;;;5097757;28;20449;-73
2023/07/10 04:28:13;;;;;;;19.27;16.57;;;20.50;99.90;;;;;;5096970;28;20212;-72
2023/07/10 04:30:39;;;;;;;18.50;15.70;;;20.50;99.90;;;;;;5081601;28;20247;-73
2023/07/10 04:33:08;;;;;;;24.83;17.60;;;20.50;99.90;;;;;;5096016;28;20219;-71
2023/07/10 04:35:34;;;;;;;21.53;17.40;;;20.50;99.90;;;;;;5097723;28;20176;-71
2023/07/10 04:37:59;;;;;;;19.60;16.73;;;20.50;99.90;;;;;;5097314;28;20381;-73
2023/07/10 04:40:25;;;;;;;21.97;19.33;;;20.50;99.90;;;;;;5097060;28;20427;-72
2023/07/10 04:42:51;;;;;;;29.37;20.07;;;20.50;99.90;;;;;;5097591;28;20310;-73
2023/07/10 04:45:17;;;;;;;21.10;17.80;;;20.50;99.90;;;;;;5082944;28;20208;-71
2023/07/10 04:47:43;;;;;;;30.10;24.40;;;20.50;99.90;;;;;;5056595;28;20953;-72
2023/07/10 04:50:09;;;;;;;26.63;23.10;;;20.50;99.90;;;;;;5085340;28;20591;-73
2023/07/10 04:52:34;;;;;;;23.33;19.03;;;20.50;99.90;;;;;;5097977;28;20237;-72
2023/07/10 04:55:00;;;;;;;33.63;25.53;;;20.60;99.90;;;;;;5098407;28;20414;-72
2023/07/10 04:57:25;;;;;;;24.27;19.97;;;20.60;99.90;;;;;;5098058;28;20184;-72
2023/07/10 04:59:51;;;;;;;24.37;19.50;;;20.60;99.90;;;;;;5092879;28;20543;-74
2023/07/10 05:02:17;;;;;;;29.03;21.83;;;20.60;99.90;;;;;;5090153;28;20202;-74
2023/07/10 05:04:42;;;;;;;30.90;22.77;;;20.60;99.90;;;;;;5105516;28;20236;-73
2023/07/10 05:07:09;;;;;;;33.63;20.73;;;20.60;99.90;;;;;;5103749;28;20507;-72
2023/07/10 05:09:35;;;;;;;32.60;23.17;;;20.60;99.90;;;;;;5102667;28;20196;-73
2023/07/10 05:12:01;;;;;;;25.90;20.60;;;20.60;99.90;;;;;;5104764;28;20416;-73
2023/07/10 05:14:27;;;;;;;26.80;23.27;;;20.60;99.90;;;;;;5105135;28;20498;-76
2023/07/10 05:16:53;;;;;;;29.13;22.33;;;20.60;99.90;;;;;;5105007;28;20173;-72
2023/07/10 05:19:18;;;;;;;28.13;21.00;;;20.60;99.90;;;;;;5084578;28;20507;-73
2023/07/10 05:21:44;;;;;;;25.07;19.60;;;20.60;99.90;;;;;;5104048;28;20184;-74
2023/07/10 05:24:09;;;;;;;22.70;18.50;;;20.70;99.90;;;;;;5103174;28;20223;-76
2023/07/10 05:26:35;;;;;;;20.83;16.27;;;20.80;99.90;;;;;;5102692;28;20256;-74
2023/07/10 05:29:00;;;;;;;19.57;17.00;;;20.70;99.90;;;;;;5103456;28;20179;-71
2023/07/10 05:31:26;;;;;;;20.17;13.50;;;20.70;99.90;;;;;;5073960;28;20193;-73
2023/07/10 05:33:52;;;;;;;20.77;14.73;;;20.70;99.90;;;;;;5062282;28;20461;-73
2023/07/10 05:36:18;;;;;;;21.33;15.80;;;20.60;99.90;;;;;;5095837;28;20225;-73
2023/07/10 05:38:48;;;;;;;18.03;13.50;;;20.50;99.90;;;;;;5084903;28;20269;-73
2023/07/10 05:41:18;;;;;;;20.27;15.17;;;20.50;99.90;;;;;;5088072;28;20437;-73
2023/07/10 05:43:44;;;;;;;14.67;11.70;;;20.50;99.90;;;;;;5087981;28;20425;-77
2023/07/10 05:46:11;;;;;;;21.87;12.57;;;20.50;99.90;;;;;;5079860;28;20431;-76
2023/07/10 05:48:37;;;;;;;18.73;10.47;;;20.50;99.90;;;;;;5067342;28;20476;-75
2023/07/10 05:51:03;;;;;;;16.60;10.87;;;20.50;99.90;;;;;;5080885;28;20492;-74
2023/07/10 05:53:29;;;;;;;17.37;10.90;;;20.50;99.90;;;;;;5104528;28;20245;-75
2023/07/10 05:55:56;;;;;;;11.87;8.73;;;20.60;99.90;;;;;;5104863;28;20415;-74
2023/07/10 05:58:27;;;;;;;14.07;9.23;;;20.60;99.90;;;;;;5086564;28;20415;-74
2023/07/10 06:00:56;;;;;;;18.30;11.17;;;20.70;99.90;;;;;;5093163;28;20424;-76
2023/07/10 06:03:22;;;;;;;15.90;12.03;;;20.80;99.90;;;;;;5083992;28;20471;-74
2023/07/10 06:05:59;;;;;;;17.60;10.87;;;20.90;99.90;;;;;;5103535;28;20410;-74
2023/07/10 06:08:26;;;;;;;18.30;10.67;;;20.90;99.90;;;;;;5104581;28;20569;-74
2023/07/10 06:10:52;;;;;;;11.40;9.67;;;20.90;99.90;;;;;;5102604;28;20485;-74
2023/07/10 06:13:18;;;;;;;12.97;8.50;;;20.90;99.90;;;;;;5102832;28;20464;-73
2023/07/10 06:15:46;;;;;;;22.77;8.60;;;20.90;99.90;;;;;;5053541;28;20432;-78
2023/07/10 06:18:13;;;;;;;14.60;9.43;;;21.00;99.90;;;;;;5080788;28;20188;-75
2023/07/10 06:20:39;;;;;;;15.00;9.70;;;21.10;99.90;;;;;;5105852;28;20486;-75
2023/07/10 06:23:04;;;;;;;12.30;9.37;;;21.30;99.90;;;;;;5072218;28;20421;-76
2023/07/10 06:25:30;;;;;;;10.97;8.50;;;21.50;99.90;;;;;;5104752;28;20192;-77
2023/07/10 06:27:56;;;;;;;10.67;8.07;;;21.70;99.90;;;;;;5088812;28;20249;-78
2023/07/10 06:30:22;;;;;;;18.53;9.20;;;22.10;99.90;;;;;;5080075;28;20205;-75
2023/07/10 06:32:47;;;;;;;12.97;7.40;;;22.60;99.90;;;;;;5064448;28;20177;-75
2023/07/10 06:35:14;;;;;;;9.33;7.27;;;22.90;99.90;;;;;;5086581;28;20399;-76
2023/07/10 06:37:40;;;;;;;12.67;7.17;;;23.10;99.90;;;;;;5099683;28;20185;-74
2023/07/10 06:40:07;;;;;;;13.90;9.07;;;23.30;99.90;;;;;;5072300;28;20491;-77
2023/07/10 06:42:35;;;;;;;12.27;7.30;;;23.50;99.90;;;;;;5088955;28;20417;-75
2023/07/10 06:45:00;;;;;;;14.17;8.70;;;23.90;99.90;;;;;;5086098;28;20442;-75
2023/07/10 06:47:26;;;;;;;15.27;8.77;;;24.30;97.80;;;;;;5059556;28;20465;-77
2023/07/10 06:49:52;;;;;;;11.43;7.40;;;24.40;94.30;;;;;;5088139;28;20200;-76
2023/07/10 06:52:17;;;;;;;12.07;7.67;;;24.30;95.30;;;;;;5100378;28;20188;-75
2023/07/10 06:54:52;;;;;;;13.23;7.27;;;24.40;94.60;;;;;;5070579;28;20223;-75
2023/07/10 06:57:19;;;;;;;11.73;7.40;;;24.60;93.50;;;;;;5044657;28;20181;-75
2023/07/10 06:59:45;;;;;;;12.83;8.23;;;24.80;92.10;;;;;;5098134;28;20508;-76
2023/07/10 07:02:13;;;;;;;13.90;8.80;;;25.00;90.80;;;;;;5073743;28;20415;-75
2023/07/10 07:04:41;;;;;;;11.67;7.33;;;25.20;87.40;;;;;;5106338;28;20220;-75
2023/07/10 07:07:07;;;;;;;13.63;7.37;;;25.60;85.60;;;;;;5105621;28;20488;-75
2023/07/10 07:09:33;;;;;;;11.70;7.60;;;26.00;79.70;;;;;;5053156;28;20439;-74
2023/07/10 07:11:59;;;;;;;10.63;5.30;;;26.00;75.60;;;;;;5083731;28;20404;-75
2023/07/10 07:14:25;;;;;;;10.30;6.50;;;26.00;77.10;;;;;;5066881;28;20192;-75
2023/07/10 07:16:51;;;;;;;10.97;7.60;;;25.90;75.00;;;;;;5049342;28;20457;-76
2023/07/10 07:19:17;;;;;;;7.57;6.13;;;25.70;75.90;;;;;;5091026;28;20453;-75
2023/07/10 07:21:42;;;;;;;9.00;5.97;;;25.80;76.60;;;;;;5052219;28;20469;-75
2023/07/10 07:24:08;;;;;;;11.73;7.20;;;25.20;79.40;;;;;;5073584;28;20188;-76
2023/07/10 07:26:35;;;;;;;7.93;5.53;;;24.90;83.10;;;;;;5068303;28;20196;-75
2023/07/10 07:29:00;;;;;;;10.13;7.30;;;24.90;85.40;;;;;;5050875;28;20697;-75
2023/07/10 07:31:26;;;;;;;10.90;7.33;;;25.00;84.30;;;;;;5079234;28;20795;-74
2023/07/10 07:33:52;;;;;;;8.70;6.70;;;25.10;82.60;;;;;;5045296;28;20208;-75
2023/07/10 07:36:17;;;;;;;8.30;6.90;;;25.40;78.70;;;;;;5078744;28;20305;-74
2023/07/10 07:38:43;;;;;;;9.07;6.40;;;25.30;77.60;;;;;;5089870;28;20177;-75
2023/07/10 07:41:08;;;;;;;14.07;9.07;;;25.10;79.90;;;;;;5077507;28;20260;-74
2023/07/10 07:43:34;;;;;;;13.70;9.00;;;24.70;83.40;;;;;;5077883;28;20522;-77
2023/07/10 07:46:00;;;;;;;9.90;7.57;;;24.40;86.00;;;;;;5071582;28;20207;-75
2023/07/10 07:48:26;;;;;;;16.70;7.87;;;24.20;89.80;;;;;;5090659;28;20396;-74
2023/07/10 07:50:59;;;;;;;13.40;6.03;;;24.10;90.40;;;;;;5089453;28;20413;-76
2023/07/10 07:53:26;;;;;;;8.50;5.10;;;23.90;90.20;;;;;;5106868;28;20365;-72
2023/07/10 07:55:51;;;;;;;6.80;5.43;;;23.90;90.90;;;;;;5071679;28;20379;-74
2023/07/10 07:58:17;;;;;;;8.10;5.50;;;24.10;88.90;;;;;;5050938;28;20503;-75
2023/07/10 08:00:43;;;;;;;8.13;5.30;;;24.10;88.70;;;;;;5074881;28;20212;-74
2023/07/10 08:03:11;;;;;;;14.93;7.40;;;24.20;88.70;;;;;;5060226;28;20185;-76
2023/07/10 08:05:37;;;;;;;11.73;7.73;;;24.10;88.30;;;;;;5035749;28;20323;-76
2023/07/10 08:08:05;;;;;;;9.43;5.80;;;24.10;87.70;;;;;;5067057;28;20465;-76
2023/07/10 08:10:36;;;;;;;9.40;5.33;;;24.20;88.60;;;;;;5090603;28;20417;-74
2023/07/10 08:13:03;;;;;;;9.73;6.00;;;24.30;87.40;;;;;;5049979;28;20408;-77
2023/07/10 08:15:29;;;;;;;8.37;5.70;;;24.50;84.20;;;;;;5051304;28;20471;-76
2023/07/10 08:17:55;;;;;;;8.60;6.40;;;24.50;83.00;;;;;;5094075;28;20413;-75
2023/07/10 08:20:21;;;;;;;13.73;6.13;;;24.60;80.40;;;;;;5082113;28;20443;-74
2023/07/10 08:22:52;;;;;;;7.97;5.57;;;24.50;80.00;;;;;;5071967;28;20543;-76
2023/07/10 08:25:21;;;;;;;6.93;5.90;;;24.40;81.40;;;;;;5062375;28;20566;-77
2023/07/10 08:27:46;;;;;;;6.17;5.07;;;24.40;81.00;;;;;;5072840;28;20452;-75
2023/07/10 08:30:13;;;;;;;9.03;6.03;;;24.40;81.20;;;;;;5064795;28;20203;-74
2023/07/10 08:32:39;;;;;;;8.80;5.30;;;24.40;80.60;;;;;;5095494;28;20196;-76
2023/07/10 08:35:07;;;;;;;7.30;6.00;;;24.50;80.50;;;;;;5059704;28;20487;-74
2023/07/10 08:37:33;;;;;;;7.00;4.43;;;24.70;77.80;;;;;;5082983;28;20403;-74
2023/07/10 08:39:59;;;;;;;11.37;5.17;;;24.70;76.70;;;;;;5097848;28;20497;-74
2023/07/10 08:42:30;;;;;;;7.13;5.70;;;24.90;73.80;;;;;;5094906;28;20389;-74
2023/07/10 08:44:58;;;;;;;6.43;4.70;;;25.10;72.60;;;;;;5058860;28;20209;-75
2023/07/10 08:47:31;;;;;;;6.70;4.20;;;25.20;72.60;;;;;;5094083;28;20736;-78
2023/07/10 08:50:06;;;;;;;6.20;4.13;;;25.20;71.40;;;;;;5095412;28;20438;-77
2023/07/10 08:52:37;;;;;;;5.10;3.27;;;25.00;70.80;;;;;;5080406;28;20411;-76
2023/07/10 08:55:04;;;;;;;5.00;3.70;;;24.80;70.90;;;;;;5046483;28;20432;-78
2023/07/10 08:57:37;;;;;;;4.17;3.77;;;24.70;70.70;;;;;;5036123;28;20444;-78
2023/07/10 09:00:08;;;;;;;5.13;3.57;;;24.80;68.80;;;;;;5070604;28;20442;-77
2023/07/10 09:02:51;;;;;;;6.10;3.63;;;24.70;68.80;;;;;;5062657;28;20850;-75
2023/07/10 09:05:22;;;;;;;4.87;4.10;;;24.70;62.70;;;;;;5051201;28;20483;-74
2023/07/10 09:07:50;;;;;;;4.37;3.33;;;24.70;63.00;;;;;;5093543;28;20491;-73
2023/07/10 09:10:23;;;;;;;7.03;3.27;;;24.80;63.30;;;;;;5059277;28;20427;-74
2023/07/10 09:12:52;;;;;;;3.47;2.90;;;24.90;63.30;;;;;;5090793;28;20887;-78
2023/07/10 09:15:25;;;;;;;5.30;3.30;;;25.10;64.40;;;;;;5057424;28;20441;-77
2023/07/10 09:18:09;;;;;;;5.70;4.37;;;25.10;62.80;;;;;;5062778;28;20419;-76
2023/07/10 09:20:37;;;;;;;8.27;4.07;;;25.00;62.00;;;;;;5092171;28;20504;-76
2023/07/10 09:23:13;;;;;;;4.17;3.20;;;24.90;60.80;;;;;;5072970;28;20429;-75
2023/07/10 09:25:39;;;;;;;4.23;3.67;;;24.90;60.60;;;;;;5088765;28;20431;-80
2023/07/10 09:28:05;;;;;;;5.40;3.50;;;24.90;60.80;;;;;;5095270;28;20485;-78
2023/07/10 09:31:04;;;;;;;6.97;3.90;;;24.80;61.50;;;;;;5090839;28;20206;-74
2023/07/10 09:33:58;;;;;;;4.03;2.97;;;24.90;61.60;;;;;;5050526;28;20194;-76
2023/07/10 09:36:24;;;;;;;4.17;2.40;;;24.90;60.50;;;;;;5051808;28;20402;-76
2023/07/10 09:38:53;;;;;;;4.57;3.33;;;25.00;58.70;;;;;;5084645;28;20411;-77
2023/07/10 09:41:22;;;;;;;4.77;2.60;;;25.10;57.90;;;;;;5052777;28;20158;-76
2023/07/10 09:43:54;;;;;;;5.00;2.90;;;25.30;57.00;;;;;;5090493;28;20403;-77
2023/07/10 09:46:28;;;;;;;4.13;2.70;;;25.30;57.20;;;;;;5080111;28;20410;-76
2023/07/10 09:48:55;;;;;;;5.50;2.67;;;25.20;57.00;;;;;;5069890;28;20428;-76
2023/07/10 09:51:22;;;;;;;3.30;2.03;;;25.20;57.00;;;;;;5073077;28;20385;-77
2023/07/10 09:53:52;;;;;;;6.03;2.67;;;25.30;56.80;;;;;;5072149;28;20423;-78
2023/07/10 09:56:35;;;;;;;3.10;1.83;;;25.50;55.20;;;;;;5056482;28;20499;-77
2023/07/10 09:59:12;;;;;;;2.93;1.93;;;25.40;54.80;;;;;;5057282;28;20483;-77
2023/07/10 10:01:37;;;;;;;2.90;2.40;;;25.50;55.10;;;;;;5079896;28;20419;-78
2023/07/10 10:04:03;;;;;;;3.33;2.30;;;25.70;54.50;;;;;;5104518;28;20503;-78
2023/07/10 10:06:31;;;;;;;4.13;1.80;;;25.80;54.40;;;;;;5083759;28;20204;-78
2023/07/10 10:08:57;;;;;;;4.23;2.00;;;25.70;52.70;;;;;;5045640;28;20451;-78
2023/07/10 10:11:39;;;;;;;4.23;1.70;;;25.50;53.50;;;;;;5071473;28;20392;-76
2023/07/10 10:14:09;;;;;;;4.10;2.10;;;25.30;52.70;;;;;;5036291;28;20404;-78
2023/07/10 10:16:41;;;;;;;7.07;2.40;;;25.20;52.80;;;;;;5055890;28;20403;-79
2023/07/10 10:19:25;;;;;;;2.83;2.07;;;25.10;53.10;;;;;;5052881;28;20419;-78
2023/07/10 10:21:51;;;;;;;6.10;2.30;;;25.00;53.50;;;;;;5058345;28;20381;-78
2023/07/10 10:24:17;;;;;;;3.93;2.90;;;24.90;53.60;;;;;;5079518;28;20445;-77
2023/07/10 10:27:10;;;;;;;4.70;2.33;;;24.70;53.30;;;;;;5077358;28;20214;-77
2023/07/10 10:29:58;;;;;;;4.77;1.90;;;24.70;53.40;;;;;;5086820;28;20442;-77
2023/07/10 10:32:45;;;;;;;2.00;1.40;;;24.90;52.70;;;;;;5073130;28;20424;-75
2023/07/10 10:35:17;;;;;;;4.00;2.07;;;24.90;52.30;;;;;;5050086;28;20988;-76
2023/07/10 10:37:53;;;;;;;3.70;2.43;;;24.80;52.10;;;;;;5092932;28;20399;-78
2023/07/10 10:40:38;;;;;;;2.93;1.50;;;24.80;52.20;;;;;;5093217;28;20442;-78
2023/07/10 10:43:34;;;;;;;2.97;1.83;;;24.90;52.10;;;;;;5058780;28;20423;-78
2023/07/10 10:46:28;;;;;;;4.50;2.20;;;25.00;52.30;;;;;;5046200;28;20463;-78
2023/07/10 10:48:57;;;;;;;2.70;1.67;;;25.00;52.10;;;;;;5094763;28;20429;-77
2023/07/10 10:51:32;;;;;;;4.00;2.00;;;25.10;52.10;;;;;;5098805;28;20420;-78
2023/07/10 10:54:07;;;;;;;3.07;1.87;;;25.20;52.10;;;;;;5051101;28;20428;-77
2023/07/10 10:56:46;;;;;;;3.70;2.20;;;25.20;51.90;;;;;;5064265;28;20423;-75
2023/07/10 10:59:46;;;;;;;4.73;2.13;;;25.20;51.70;;;;;;5070699;28;20448;-76
2023/07/10 11:02:50;;;;;;;2.70;2.33;;;25.30;52.10;;;;;;5070700;28;20451;-76
2023/07/10 11:05:33;;;;;;;3.00;2.33;;;25.40;52.00;;;;;;5072239;28;20551;-78
2023/07/10 11:08:02;;;;;;;4.87;2.03;;;25.70;51.70;;;;;;5091801;28;20446;-76
2023/07/10 11:10:37;;;;;;;4.73;2.50;;;25.80;50.80;;;;;;5058633;28;20496;-75
2023/07/10 11:13:22;;;;;;;2.97;1.97;;;25.80;50.60;;;;;;5087589;28;20456;-78
2023/07/10 11:15:47;;;;;;;6.10;2.80;;;25.90;50.40;;;;;;5089915;28;20455;-79
2023/07/10 11:18:15;;;;;;;3.60;2.47;;;25.80;50.00;;;;;;5052027;28;20416;-76
2023/07/10 11:20:41;;;;;;;3.67;2.33;;;25.60;50.70;;;;;;5052843;28;20306;-76
2023/07/10 11:23:35;;;;;;;6.20;3.07;;;25.60;51.10;;;;;;5075184;28;20416;-79
2023/07/10 11:26:07;;;;;;;7.03;2.50;;;25.80;50.50;;;;;;5072836;28;20435;-78
2023/07/10 11:28:32;;;;;;;7.80;2.70;;;26.00;50.60;;;;;;5081983;28;20487;-77
2023/07/10 11:31:19;;;;;;;4.90;2.20;;;26.30;50.20;;;;;;5077122;28;20431;-75
2023/07/10 11:33:53;;;;;;;4.90;2.47;;;26.40;49.50;;;;;;5075440;28;20184;-77
2023/07/10 11:36:24;;;;;;;3.40;2.57;;;26.30;49.40;;;;;;5092582;28;20410;-76
2023/07/10 11:38:58;;;;;;;2.40;2.10;;;26.50;49.40;;;;;;5069570;28;20423;-78
2023/07/10 11:41:35;;;;;;;7.67;2.63;;;26.50;49.20;;;;;;5037716;28;20487;-78
2023/07/10 11:44:29;;;;;;;3.23;2.10;;;26.30;50.00;;;;;;5094891;28;20421;-79
2023/07/10 11:47:01;;;;;;;4.03;2.57;;;26.20;50.40;;;;;;5054569;28;20452;-79
2023/07/10 11:50:04;;;;;;;4.17;2.27;;;26.00;50.60;;;;;;5072806;28;20961;-77
2023/07/10 11:52:32;;;;;;;6.77;1.93;;;26.00;50.90;;;;;;5077219;28;20396;-79
2023/07/10 11:54:57;;;;;;;2.90;2.30;;;26.00;50.60;;;;;;5064172;28;20427;-77
2023/07/10 11:57:27;;;;;;;3.53;1.93;;;26.20;50.50;;;;;;5054265;28;20519;-78
2023/07/10 11:59:55;;;;;;;4.10;1.70;;;26.40;50.50;;;;;;5068723;28;20624;-76
2023/07/10 12:02:39;;;;;;;3.30;2.23;;;26.50;49.50;;;;;;5072440;28;20408;-77
2023/07/10 12:05:14;;;;;;;2.67;1.60;;;26.60;49.10;;;;;;5091569;28;20455;-75
2023/07/10 12:07:56;;;;;;;2.97;1.90;;;26.80;48.50;;;;;;5041934;28;20528;-78
2023/07/10 12:10:24;;;;;;;6.13;2.93;;;27.10;48.30;;;;;;5073812;28;20616;-77
2023/07/10 12:12:51;;;;;;;4.40;2.30;;;27.20;48.20;;;;;;5094960;28;20415;-76
2023/07/10 12:15:17;;;;;;;4.23;2.37;;;27.20;48.30;;;;;;5079895;28;20435;-76
2023/07/10 12:17:43;;;;;;;4.13;2.13;;;27.10;48.20;;;;;;5081172;28;20411;-77
2023/07/10 12:20:26;;;;;;;5.17;2.27;;;27.00;48.20;;;;;;5077997;28;20764;-77
2023/07/10 12:22:55;;;;;;;3.10;1.67;;;27.10;47.20;;;;;;5073171;28;20485;-78
2023/07/10 12:25:22;;;;;;;3.07;1.93;;;26.90;47.20;;;;;;5091891;28;20417;-77
2023/07/10 12:27:47;;;;;;;5.20;2.40;;;26.70;47.70;;;;;;5076216;28;20435;-77
2023/07/10 12:30:17;;;;;;;3.70;1.90;;;26.70;47.90;;;;;;5055340;28;20459;-75
2023/07/10 12:32:46;;;;;;;2.23;1.50;;;26.70;48.00;;;;;;5074902;28;20211;-77
2023/07/10 12:35:20;;;;;;;4.67;2.67;;;26.70;48.30;;;;;;5052117;28;20428;-79
2023/07/10 12:37:48;;;;;;;4.83;2.63;;;26.80;47.60;;;;;;5084813;28;20509;-78
2023/07/10 12:40:17;;;;;;;3.13;2.10;;;26.90;47.30;;;;;;5056538;28;20442;-79
2023/07/10 12:42:44;;;;;;;11.53;2.40;;;26.90;47.10;;;;;;5107185;28;20414;-78
2023/07/10 12:45:32;;;;;;;3.40;2.17;;;26.90;46.50;;;;;;5087446;28;20431;-77
2023/07/10 12:48:17;;;;;;;5.30;4.00;;;26.80;45.90;;;;;;5035696;28;20472;-76